createdAt,value
2017-03-21T00:00:32.039Z,7.28
2017-03-21T00:01:32.035Z,8.13
2017-03-21T00:02:32.047Z,6.18
2017-03-21T00:03:31.994Z,6.73
2017-03-21T00:04:31.938Z,6.65
2017-03-21T00:05:31.958Z,9.17
2017-03-21T00:06:31.926Z,6.95
2017-03-21T00:07:31.887Z,9.42
2017-03-21T00:08:31.894Z,8.12
2017-03-21T00:09:31.837Z,8.97
2017-03-21T00:10:31.801Z,6.88
2017-03-21T00:11:31.782Z,8.07
2017-03-21T00:12:31.890Z,10.13
2017-03-21T00:13:31.840Z,11.95
2017-03-21T00:14:31.801Z,8.22
2017-03-21T00:15:31.778Z,8.92
2017-03-21T00:16:31.740Z,7.55
2017-03-21T00:17:31.747Z,9.13
2017-03-21T00:18:31.727Z,9.05
2017-03-21T00:19:31.674Z,8.95
2017-03-21T00:20:31.644Z,8.05
2017-03-21T00:21:31.606Z,10.32
2017-03-21T00:22:31.550Z,8.83
2017-03-21T00:23:31.506Z,9.12
2017-03-21T00:24:31.471Z,9.88
2017-03-21T00:25:37.110Z,8.92
2017-03-21T00:26:50.986Z,8.65
2017-03-21T00:27:51.433Z,9.47
2017-03-21T00:28:51.386Z,9.72
2017-03-21T00:29:51.344Z,7.98
2017-03-21T00:30:52.078Z,9.37
2017-03-21T00:31:52.053Z,8.52
2017-03-21T00:32:52.006Z,9.70
2017-03-21T00:33:51.963Z,11.03
2017-03-21T00:34:51.879Z,8.02
2017-03-21T00:35:51.823Z,8.50
2017-03-21T00:36:51.795Z,8.00
2017-03-21T00:37:52.487Z,8.38
2017-03-21T00:38:52.473Z,10.32
2017-03-21T00:39:52.409Z,9.98
2017-03-21T00:40:52.387Z,9.22
2017-03-21T00:41:52.343Z,9.37
2017-03-21T00:42:52.274Z,8.60
2017-03-21T00:43:52.242Z,10.43
2017-03-21T00:44:53.001Z,7.40
2017-03-21T00:45:52.985Z,8.70
2017-03-21T00:46:52.917Z,9.35
2017-03-21T00:47:52.899Z,9.80
2017-03-21T00:48:52.885Z,9.05
2017-03-21T00:49:52.839Z,9.35
2017-03-21T00:50:53.499Z,10.23
2017-03-21T00:51:56.517Z,10.57
2017-03-21T00:52:59.512Z,13.72
2017-03-21T00:54:00.515Z,11.32
2017-03-21T00:55:00.794Z,10.55
2017-03-21T00:56:00.813Z,13.38
2017-03-21T00:57:00.951Z,9.67
2017-03-21T00:58:00.914Z,11.20
2017-03-21T00:59:00.911Z,10.07
2017-03-21T01:00:00.865Z,8.50
2017-03-21T01:01:00.867Z,10.43
2017-03-21T01:02:00.877Z,10.52
2017-03-21T01:03:01.079Z,12.87
2017-03-21T01:04:01.284Z,12.15
2017-03-21T01:05:01.482Z,12.92
2017-03-21T01:06:01.618Z,12.48
2017-03-21T01:07:01.780Z,12.98
2017-03-21T01:08:01.978Z,10.50
2017-03-21T01:09:02.820Z,12.17
2017-03-21T01:10:02.969Z,15.15
2017-03-21T01:11:03.190Z,13.43
2017-03-21T01:12:04.049Z,11.90
2017-03-21T01:13:04.083Z,11.50
2017-03-21T01:14:04.080Z,13.42
2017-03-21T01:15:04.022Z,13.43
2017-03-21T01:16:04.004Z,12.60
2017-03-21T01:17:03.963Z,13.07
2017-03-21T01:18:03.958Z,9.15
2017-03-21T01:19:03.948Z,11.95
2017-03-21T01:20:03.955Z,14.62
2017-03-21T01:21:03.976Z,11.55
2017-03-21T01:22:03.957Z,15.70
2017-03-21T01:23:03.943Z,15.60
2017-03-21T01:24:03.990Z,14.53
2017-03-21T01:25:03.999Z,16.72
2017-03-21T01:26:04.740Z,14.65
2017-03-21T01:27:04.736Z,15.78
2017-03-21T01:28:04.745Z,16.12
2017-03-21T01:29:04.790Z,16.90
2017-03-21T01:30:04.837Z,16.20
2017-03-21T01:31:05.553Z,18.28
2017-03-21T01:32:05.538Z,18.45
2017-03-21T01:33:05.578Z,18.22
2017-03-21T01:34:05.560Z,18.87
2017-03-21T01:35:05.530Z,18.20
2017-03-21T01:36:05.498Z,17.08
2017-03-21T01:37:06.228Z,20.35
2017-03-21T01:38:07.031Z,18.92
2017-03-21T01:39:07.016Z,19.53
2017-03-21T01:40:07.039Z,17.05
2017-03-21T01:41:07.000Z,21.35
2017-03-21T01:42:06.977Z,14.38
2017-03-21T01:43:06.970Z,17.80
2017-03-21T01:44:06.950Z,19.18
2017-03-21T01:45:06.953Z,15.63
2017-03-21T01:46:06.930Z,17.82
2017-03-21T01:47:07.451Z,17.52
2017-03-21T01:48:07.421Z,19.42
2017-03-21T01:49:08.133Z,18.08
2017-03-21T01:50:08.093Z,18.93
2017-03-21T01:51:08.142Z,16.83
2017-03-21T01:52:08.079Z,18.47
2017-03-21T01:53:08.049Z,17.18
2017-03-21T01:54:08.006Z,20.12
2017-03-21T01:55:08.014Z,17.10
2017-03-21T01:56:08.003Z,17.95
2017-03-21T01:57:07.961Z,21.08
2017-03-21T01:58:07.922Z,21.45
2017-03-21T01:59:08.321Z,19.30
2017-03-21T02:00:09.501Z,15.73
2017-03-21T02:01:09.471Z,20.02
2017-03-21T02:02:10.211Z,18.82
2017-03-21T02:03:10.171Z,17.23
2017-03-21T02:04:10.189Z,19.00
2017-03-21T02:05:10.198Z,18.50
2017-03-21T02:06:10.244Z,20.65
2017-03-21T02:07:10.243Z,19.02
2017-03-21T02:08:10.191Z,18.72
2017-03-21T02:09:10.225Z,17.18
2017-03-21T02:10:10.320Z,17.17
2017-03-21T02:11:10.270Z,17.43
2017-03-21T02:12:10.245Z,16.50
2017-03-21T02:13:10.251Z,18.55
2017-03-21T02:14:10.223Z,19.82
2017-03-21T02:15:10.244Z,18.63
2017-03-21T02:16:10.246Z,18.17
2017-03-21T02:17:10.289Z,18.52
2017-03-21T02:18:10.305Z,19.98
2017-03-21T02:19:10.264Z,20.52
2017-03-21T02:20:10.391Z,17.47
2017-03-21T02:21:10.387Z,16.43
2017-03-21T02:22:10.342Z,15.95
2017-03-21T02:23:10.351Z,20.50
2017-03-21T02:24:10.346Z,18.43
2017-03-21T02:25:10.459Z,18.55
2017-03-21T02:26:10.618Z,18.38
2017-03-21T02:27:10.653Z,17.50
2017-03-21T02:28:10.656Z,18.18
2017-03-21T02:29:10.607Z,18.40
2017-03-21T02:30:10.590Z,17.78
2017-03-21T02:31:10.674Z,19.18
2017-03-21T02:32:10.638Z,17.95
2017-03-21T02:33:10.650Z,21.75
2017-03-21T02:34:10.651Z,18.50
2017-03-21T02:35:10.685Z,17.85
2017-03-21T02:36:10.674Z,20.87
2017-03-21T02:37:10.606Z,18.82
2017-03-21T02:38:10.590Z,18.58
2017-03-21T02:39:10.518Z,16.35
2017-03-21T02:40:10.474Z,18.52
2017-03-21T02:41:10.453Z,18.50
2017-03-21T02:42:11.184Z,23.52
2017-03-21T02:43:11.878Z,18.97
2017-03-21T02:44:12.578Z,22.80
2017-03-21T02:45:12.553Z,19.97
2017-03-21T02:46:12.580Z,16.88
2017-03-21T02:47:12.586Z,21.87
2017-03-21T02:48:12.545Z,19.25
2017-03-21T02:49:12.501Z,16.65
2017-03-21T02:50:12.455Z,20.65
2017-03-21T02:51:12.438Z,22.93
2017-03-21T02:52:12.410Z,20.38
2017-03-21T02:53:12.350Z,19.40
2017-03-21T02:54:12.343Z,20.37
2017-03-21T02:55:13.022Z,19.25
2017-03-21T02:56:12.983Z,19.85
2017-03-21T02:57:13.710Z,21.47
2017-03-21T02:58:13.671Z,17.50
2017-03-21T02:59:13.646Z,21.95
2017-03-21T03:00:13.627Z,22.23
2017-03-21T03:01:13.615Z,18.28
2017-03-21T03:02:13.618Z,19.25
2017-03-21T03:03:13.566Z,17.72
2017-03-21T03:04:13.530Z,19.13
2017-03-21T03:05:13.566Z,21.02
2017-03-21T03:06:13.526Z,21.15
2017-03-21T03:07:13.537Z,20.63
2017-03-21T03:08:13.534Z,18.25
2017-03-21T03:09:13.543Z,20.17
2017-03-21T03:10:13.512Z,17.78
2017-03-21T03:11:13.511Z,18.93
2017-03-21T03:12:13.502Z,18.67
2017-03-21T03:13:13.483Z,17.68
2017-03-21T03:14:13.465Z,17.57
2017-03-21T03:15:13.422Z,19.40
2017-03-21T03:16:13.394Z,16.03
2017-03-21T03:17:13.381Z,17.50
2017-03-21T03:18:13.338Z,13.00
2017-03-21T03:19:13.277Z,16.50
2017-03-21T03:20:13.248Z,16.83
2017-03-21T03:21:13.189Z,15.47
2017-03-21T03:22:13.235Z,16.60
2017-03-21T03:23:13.178Z,15.88
2017-03-21T03:24:13.137Z,17.25
2017-03-21T03:25:13.121Z,16.28
2017-03-21T03:26:13.078Z,17.63
2017-03-21T03:27:13.074Z,14.68
2017-03-21T03:28:13.087Z,16.35
2017-03-21T03:29:13.040Z,18.28
2017-03-21T03:30:13.055Z,16.58
2017-03-21T03:31:13.061Z,14.43
2017-03-21T03:32:13.047Z,15.13
2017-03-21T03:33:13.716Z,17.53
2017-03-21T03:34:13.674Z,18.82
2017-03-21T03:35:13.625Z,14.53
2017-03-21T03:36:13.594Z,19.15
2017-03-21T03:37:13.586Z,16.43
2017-03-21T03:38:13.540Z,17.60
2017-03-21T03:39:14.150Z,17.80
2017-03-21T03:40:14.170Z,16.48
2017-03-21T03:41:14.106Z,19.85
2017-03-21T03:42:14.113Z,16.77
2017-03-21T03:43:14.074Z,16.60
2017-03-21T03:44:14.074Z,15.28
2017-03-21T03:45:14.094Z,15.70
2017-03-21T03:46:14.021Z,16.32
2017-03-21T03:47:13.997Z,14.47
2017-03-21T03:48:13.923Z,15.88
2017-03-21T03:49:13.927Z,14.35
2017-03-21T03:50:13.899Z,15.33
2017-03-21T03:51:15.125Z,15.50
2017-03-21T03:52:15.122Z,15.58
2017-03-21T03:53:15.877Z,16.08
2017-03-21T03:54:15.851Z,15.73
2017-03-21T03:55:16.578Z,16.62
2017-03-21T03:56:16.559Z,16.63
2017-03-21T03:57:16.541Z,14.33
2017-03-21T03:58:16.549Z,15.18
2017-03-21T03:59:16.502Z,16.00
2017-03-21T04:00:16.467Z,17.77
2017-03-21T04:01:16.446Z,17.48
2017-03-21T04:02:16.527Z,13.90
2017-03-21T04:03:16.506Z,13.95
2017-03-21T04:04:16.585Z,11.47
2017-03-21T04:05:16.571Z,15.53
2017-03-21T04:06:16.657Z,13.72
2017-03-21T04:07:16.644Z,16.95
2017-03-21T04:08:17.338Z,15.20
2017-03-21T04:09:17.308Z,12.78
2017-03-21T04:10:17.277Z,12.50
2017-03-21T04:11:17.963Z,15.07
2017-03-21T04:12:17.959Z,12.72
2017-03-21T04:13:17.923Z,13.82
2017-03-21T04:14:17.932Z,15.53
2017-03-21T04:15:17.918Z,15.78
2017-03-21T04:16:17.872Z,13.93
2017-03-21T04:17:17.856Z,16.58
2017-03-21T04:18:18.515Z,13.63
2017-03-21T04:19:18.484Z,13.07
2017-03-21T04:20:18.459Z,12.98
2017-03-21T04:21:18.418Z,12.22
2017-03-21T04:22:18.375Z,11.97
2017-03-21T04:23:18.358Z,12.28
2017-03-21T04:24:18.339Z,14.85
2017-03-21T04:25:18.327Z,13.12
2017-03-21T04:26:18.249Z,12.12
2017-03-21T04:27:18.271Z,15.53
2017-03-21T04:28:18.228Z,13.53
2017-03-21T04:29:18.298Z,14.52
2017-03-21T04:30:18.335Z,12.58
2017-03-21T04:31:18.332Z,14.72
2017-03-21T04:32:18.314Z,14.15
2017-03-21T04:33:18.337Z,14.32
2017-03-21T04:34:18.363Z,16.42
2017-03-21T04:35:18.383Z,13.10
2017-03-21T04:36:18.394Z,15.00
2017-03-21T04:37:18.425Z,15.20
2017-03-21T04:38:18.413Z,12.45
2017-03-21T04:39:18.411Z,12.90
2017-03-21T04:40:18.383Z,13.88
2017-03-21T04:41:18.374Z,15.12
2017-03-21T04:42:18.326Z,14.23
2017-03-21T04:43:18.374Z,13.57
2017-03-21T04:44:18.418Z,13.75
2017-03-21T04:45:18.401Z,14.43
2017-03-21T04:46:18.424Z,13.15
2017-03-21T04:47:18.430Z,13.03
2017-03-21T04:48:18.442Z,12.73
2017-03-21T04:49:18.551Z,14.72
2017-03-21T04:50:18.553Z,12.88
2017-03-21T04:51:18.542Z,14.80
2017-03-21T04:52:18.493Z,13.23
2017-03-21T04:53:18.470Z,12.50
2017-03-21T04:54:18.458Z,14.70
2017-03-21T04:55:18.453Z,14.45
2017-03-21T04:56:18.418Z,9.85
2017-03-21T04:57:19.149Z,11.60
2017-03-21T04:58:20.143Z,13.53
2017-03-21T04:59:20.203Z,14.98
2017-03-21T05:00:20.214Z,10.25
2017-03-21T05:01:20.380Z,11.77
2017-03-21T05:02:20.412Z,15.10
2017-03-21T05:03:20.408Z,13.65
2017-03-21T05:04:20.391Z,14.18
2017-03-21T05:05:20.394Z,14.13
2017-03-21T05:06:20.405Z,16.25
2017-03-21T05:07:20.397Z,14.37
2017-03-21T05:08:20.342Z,15.85
2017-03-21T05:09:20.357Z,14.57
2017-03-21T05:10:20.299Z,14.77
2017-03-21T05:11:20.247Z,14.05
2017-03-21T05:12:20.217Z,13.53
2017-03-21T05:13:20.171Z,14.13
2017-03-21T05:14:20.214Z,15.57
2017-03-21T05:15:20.790Z,16.72
2017-03-21T05:16:20.745Z,13.57
2017-03-21T05:17:20.704Z,13.78
2017-03-21T05:18:20.658Z,11.82
2017-03-21T05:19:20.631Z,15.20
2017-03-21T05:20:20.597Z,13.22
2017-03-21T05:21:20.578Z,15.73
2017-03-21T05:22:21.127Z,13.90
2017-03-21T05:23:21.822Z,16.40
2017-03-21T05:24:21.858Z,14.62
2017-03-21T05:25:28.884Z,14.28
2017-03-21T05:26:30.206Z,17.10
2017-03-21T05:27:30.214Z,14.47
2017-03-21T05:28:30.210Z,15.77
2017-03-21T05:29:30.212Z,14.27
2017-03-21T05:30:30.186Z,13.85
2017-03-21T05:31:30.917Z,13.42
2017-03-21T05:32:30.886Z,14.37
2017-03-21T05:33:30.917Z,14.58
2017-03-21T05:34:30.909Z,17.85
2017-03-21T05:35:30.887Z,11.93
2017-03-21T05:36:30.845Z,13.58
2017-03-21T05:37:30.819Z,15.23
2017-03-21T05:38:30.777Z,16.12
2017-03-21T05:39:30.757Z,16.63
2017-03-21T05:40:30.764Z,15.28
2017-03-21T05:41:30.774Z,13.52
2017-03-21T05:42:30.733Z,14.77
2017-03-21T05:43:30.704Z,16.42
2017-03-21T05:44:30.726Z,18.32
2017-03-21T05:45:30.726Z,16.95
2017-03-21T05:46:30.702Z,19.15
2017-03-21T05:47:30.702Z,17.93
2017-03-21T05:48:30.668Z,17.58
2017-03-21T05:49:30.649Z,20.02
2017-03-21T05:50:31.446Z,16.60
2017-03-21T05:51:31.457Z,16.18
2017-03-21T05:52:31.451Z,17.73
2017-03-21T05:53:31.430Z,16.28
2017-03-21T05:54:31.410Z,17.77
2017-03-21T05:55:31.414Z,17.42
2017-03-21T05:56:31.378Z,17.80
2017-03-21T05:57:31.374Z,17.87
2017-03-21T05:58:31.326Z,14.48
2017-03-21T05:59:31.334Z,17.22
2017-03-21T06:00:31.354Z,18.12
2017-03-21T06:01:31.375Z,15.68
2017-03-21T06:02:31.381Z,17.52
2017-03-21T06:03:31.361Z,14.45
2017-03-21T06:04:31.348Z,16.42
2017-03-21T06:05:31.329Z,20.77
2017-03-21T06:06:31.589Z,15.28
2017-03-21T06:07:31.618Z,13.45
2017-03-21T06:08:31.563Z,17.63
2017-03-21T06:09:31.549Z,14.98
2017-03-21T06:10:31.511Z,14.37
2017-03-21T06:11:31.518Z,14.55
2017-03-21T06:12:31.506Z,15.32
2017-03-21T06:13:31.470Z,16.33
2017-03-21T06:14:31.746Z,15.77
2017-03-21T06:15:32.361Z,15.45
2017-03-21T06:16:32.873Z,17.93
2017-03-21T06:17:33.918Z,15.37
2017-03-21T06:18:34.038Z,16.02
2017-03-21T06:19:34.946Z,14.18
2017-03-21T06:20:35.319Z,15.68
2017-03-21T06:21:35.714Z,21.03
2017-03-21T06:22:37.235Z,15.43
2017-03-21T06:23:38.114Z,15.22
2017-03-21T06:24:38.319Z,16.63
2017-03-21T06:25:39.845Z,16.33
2017-03-21T06:26:40.877Z,14.72
2017-03-21T06:27:40.856Z,16.73
2017-03-21T06:28:40.810Z,14.42
2017-03-21T06:29:40.774Z,16.42
2017-03-21T06:30:40.749Z,15.35
2017-03-21T06:31:40.838Z,13.97
2017-03-21T06:32:40.847Z,15.58
2017-03-21T06:33:40.840Z,13.80
2017-03-21T06:34:41.569Z,14.82
2017-03-21T06:35:42.295Z,12.48
2017-03-21T06:36:42.249Z,14.77
2017-03-21T06:37:42.253Z,14.27
2017-03-21T06:38:42.218Z,13.07
2017-03-21T06:39:42.175Z,12.38
2017-03-21T06:40:42.135Z,12.48
2017-03-21T06:41:42.411Z,11.63
2017-03-21T06:42:42.865Z,11.30
2017-03-21T06:43:42.834Z,10.30
2017-03-21T06:44:43.203Z,12.62
2017-03-21T06:45:43.533Z,12.02
2017-03-21T06:46:43.609Z,10.03
2017-03-21T06:47:44.042Z,10.53
2017-03-21T06:48:44.513Z,9.02
2017-03-21T06:49:44.769Z,7.22
2017-03-21T06:50:44.985Z,7.77
2017-03-21T06:51:45.222Z,8.12
2017-03-21T06:52:45.382Z,8.22
2017-03-21T06:53:45.595Z,13.55
2017-03-21T06:54:47.009Z,25.43
2017-03-21T06:55:47.339Z,15.52
2017-03-21T06:56:47.729Z,13.68
2017-03-21T06:57:48.487Z,12.70
2017-03-21T06:58:49.581Z,12.77
2017-03-21T06:59:50.286Z,9.02
2017-03-21T07:00:50.244Z,10.78
2017-03-21T07:01:50.233Z,11.35
2017-03-21T07:02:50.318Z,10.68
2017-03-21T07:03:50.332Z,13.45
2017-03-21T07:04:50.313Z,9.72
2017-03-21T07:05:50.310Z,10.22
2017-03-21T07:06:50.416Z,8.55
2017-03-21T07:07:50.398Z,9.20
2017-03-21T07:08:50.363Z,6.85
2017-03-21T07:09:50.331Z,9.45
2017-03-21T07:10:50.376Z,5.93
2017-03-21T07:11:50.301Z,7.97
2017-03-21T07:12:50.333Z,7.27
2017-03-21T07:13:50.313Z,6.45
2017-03-21T07:14:50.414Z,8.27
2017-03-21T07:15:50.410Z,15.30
2017-03-21T07:16:50.430Z,4.62
2017-03-21T07:17:50.438Z,8.33
2017-03-21T07:18:50.495Z,5.17
2017-03-21T07:19:51.218Z,6.23
2017-03-21T07:20:51.201Z,6.00
2017-03-21T07:21:51.905Z,3.98
2017-03-21T07:22:51.928Z,5.20
2017-03-21T07:23:52.673Z,4.38
2017-03-21T07:24:52.657Z,5.37
2017-03-21T07:25:52.714Z,8.17
2017-03-21T07:26:52.698Z,10.03
2017-03-21T07:27:52.727Z,8.12
2017-03-21T07:28:52.702Z,5.73
2017-03-21T07:29:53.425Z,11.02
2017-03-21T07:30:54.159Z,8.22
2017-03-21T07:31:54.161Z,9.97
2017-03-21T07:32:54.298Z,8.93
2017-03-21T07:33:54.343Z,14.63
2017-03-21T07:34:54.419Z,7.83
2017-03-21T07:35:54.455Z,5.92
2017-03-21T07:36:54.462Z,7.27
2017-03-21T07:37:54.471Z,6.48
2017-03-21T07:38:56.152Z,7.17
2017-03-21T07:39:56.943Z,5.85
2017-03-21T07:40:56.938Z,8.00
2017-03-21T07:41:56.906Z,6.72
2017-03-21T07:42:56.888Z,10.35
2017-03-21T07:43:57.578Z,6.20
2017-03-21T07:44:57.531Z,7.95
2017-03-21T07:45:57.485Z,8.88
2017-03-21T07:46:57.649Z,12.17
2017-03-21T07:47:58.347Z,8.02
2017-03-21T07:48:58.456Z,6.07
2017-03-21T07:49:58.451Z,7.48
2017-03-21T07:50:59.258Z,7.20
2017-03-21T07:51:59.285Z,7.90
2017-03-21T07:52:59.306Z,9.15
2017-03-21T07:53:59.294Z,7.92
2017-03-21T07:54:59.242Z,8.25
2017-03-21T07:55:59.361Z,7.22
2017-03-21T07:56:59.318Z,7.47
2017-03-21T07:57:59.332Z,6.87
2017-03-21T07:58:59.871Z,11.28
2017-03-21T07:59:59.899Z,8.58
2017-03-21T08:01:00.097Z,6.93
2017-03-21T08:02:00.066Z,9.32
2017-03-21T08:03:00.135Z,9.20
2017-03-21T08:04:00.117Z,6.70
2017-03-21T08:05:00.104Z,13.50
2017-03-21T08:06:00.058Z,9.63
2017-03-21T08:07:00.033Z,9.42
2017-03-21T08:08:00.175Z,7.97
2017-03-21T08:09:00.106Z,8.87
2017-03-21T08:10:00.073Z,8.37
2017-03-21T08:11:00.110Z,6.70
2017-03-21T08:12:00.098Z,9.38
2017-03-21T08:13:00.146Z,12.25
2017-03-21T08:14:00.126Z,7.93
2017-03-21T08:15:00.116Z,10.97
2017-03-21T08:16:00.078Z,9.90
2017-03-21T08:17:00.779Z,9.82
2017-03-21T08:18:01.134Z,8.10
2017-03-21T08:19:01.177Z,13.60
2017-03-21T08:20:01.252Z,16.80
2017-03-21T08:21:01.198Z,11.20
2017-03-21T08:22:01.206Z,13.52
2017-03-21T08:23:01.171Z,10.57
2017-03-21T08:24:01.170Z,7.85
2017-03-21T08:25:01.178Z,9.13
2017-03-21T08:26:01.150Z,8.38
2017-03-21T08:27:01.203Z,9.43
2017-03-21T08:28:01.218Z,8.53
2017-03-21T08:29:01.250Z,10.47
2017-03-21T08:30:01.313Z,8.13
2017-03-21T08:31:01.298Z,8.45
2017-03-21T08:32:01.306Z,7.50
2017-03-21T08:33:01.297Z,7.50
2017-03-21T08:34:01.323Z,7.08
2017-03-21T08:35:02.092Z,9.67
2017-03-21T08:36:02.118Z,9.02
2017-03-21T08:37:04.054Z,10.45
2017-03-21T08:38:04.577Z,10.08
2017-03-21T08:39:04.794Z,10.72
2017-03-21T08:40:04.778Z,11.20
2017-03-21T08:41:06.873Z,9.62
2017-03-21T08:42:06.834Z,11.93
2017-03-21T08:43:06.805Z,9.65
2017-03-21T08:44:07.608Z,7.82
2017-03-21T08:45:07.590Z,9.17
2017-03-21T08:46:07.566Z,8.40
2017-03-21T08:47:07.557Z,12.40
2017-03-21T08:48:07.575Z,9.40
2017-03-21T08:49:07.513Z,11.42
2017-03-21T08:50:07.465Z,11.23
2017-03-21T08:51:08.218Z,11.85
2017-03-21T08:52:08.181Z,11.72
2017-03-21T08:53:08.138Z,11.65
2017-03-21T08:54:08.106Z,11.07
2017-03-21T08:55:08.832Z,9.15
2017-03-21T08:56:09.574Z,8.23
2017-03-21T08:57:09.540Z,9.55
2017-03-21T08:58:09.586Z,7.82
2017-03-21T08:59:09.542Z,16.75
2017-03-21T09:00:09.538Z,13.75
2017-03-21T09:01:09.600Z,15.38
2017-03-21T09:02:09.609Z,11.45
2017-03-21T09:03:09.602Z,12.18
2017-03-21T09:04:09.563Z,16.78
2017-03-21T09:05:09.582Z,10.12
2017-03-21T09:06:09.642Z,10.92
2017-03-21T09:07:09.593Z,7.47
2017-03-21T09:08:10.126Z,8.43
2017-03-21T09:09:10.099Z,13.08
2017-03-21T09:10:10.083Z,9.13
2017-03-21T09:11:10.062Z,8.90
2017-03-21T09:12:10.757Z,8.83
2017-03-21T09:13:10.731Z,7.32
2017-03-21T09:14:10.677Z,8.05
2017-03-21T09:15:10.674Z,9.78
2017-03-21T09:16:10.675Z,7.08
2017-03-21T09:17:10.629Z,6.53
2017-03-21T09:18:10.627Z,2.70
2017-03-21T09:19:11.322Z,7.07
2017-03-21T09:20:11.314Z,1.93
2017-03-21T09:21:11.288Z,2.47
2017-03-21T09:22:11.286Z,5.12
2017-03-21T09:23:11.258Z,2.17
2017-03-21T09:24:12.584Z,2.45
2017-03-21T09:25:14.173Z,5.17
2017-03-21T09:26:37.563Z,2.48
2017-03-21T09:27:57.172Z,2.57
2017-03-21T09:29:17.967Z,1.43
2017-03-21T09:30:17.967Z,1.20
2017-03-21T09:31:17.949Z,2.00
2017-03-21T09:32:20.219Z,3.00
2017-03-21T09:33:20.333Z,1.27
2017-03-21T09:34:20.304Z,2.42
2017-03-21T09:35:20.358Z,1.85
2017-03-21T09:36:20.335Z,2.28
2017-03-21T09:37:20.370Z,1.67
2017-03-21T09:38:20.334Z,3.03
2017-03-21T09:39:20.394Z,1.62
2017-03-21T09:40:20.386Z,2.52
2017-03-21T09:41:21.110Z,2.25
2017-03-21T09:42:21.158Z,1.27
2017-03-21T09:43:21.124Z,3.47
2017-03-21T09:44:21.889Z,2.15
2017-03-21T09:45:21.921Z,1.72
2017-03-21T09:46:21.929Z,0.60
2017-03-21T09:47:21.981Z,1.20
2017-03-21T09:48:22.775Z,1.20
2017-03-21T09:49:22.780Z,1.68
2017-03-21T09:50:22.786Z,1.60
2017-03-21T09:51:22.781Z,1.23
2017-03-21T09:52:22.801Z,2.43
2017-03-21T09:53:22.829Z,7.90
2017-03-21T09:54:22.842Z,1.07
2017-03-21T09:55:22.826Z,2.85
2017-03-21T09:56:22.853Z,1.97
2017-03-21T09:57:22.837Z,1.17
2017-03-21T09:58:22.954Z,3.43
2017-03-21T09:59:22.982Z,6.03
2017-03-21T10:00:23.774Z,2.75
2017-03-21T10:01:23.818Z,4.20
2017-03-21T10:02:24.569Z,1.65
2017-03-21T10:03:24.526Z,3.65
2017-03-21T10:04:24.494Z,2.57
2017-03-21T10:05:26.965Z,2.43
2017-03-21T10:06:26.950Z,2.73
2017-03-21T10:07:26.929Z,1.83
2017-03-21T10:08:27.672Z,2.37
2017-03-21T10:09:27.658Z,5.12
2017-03-21T10:10:28.410Z,5.62
2017-03-21T10:11:28.409Z,4.58
2017-03-21T10:12:28.381Z,3.85
2017-03-21T10:13:29.192Z,5.45
2017-03-21T10:14:29.156Z,3.53
2017-03-21T10:15:29.170Z,6.07
2017-03-21T10:16:29.147Z,4.23
2017-03-21T10:17:29.159Z,3.60
2017-03-21T10:18:29.140Z,3.13
2017-03-21T10:19:29.114Z,3.25
2017-03-21T10:20:29.091Z,3.13
2017-03-21T10:21:29.066Z,14.37
2017-03-21T10:22:29.822Z,7.68
2017-03-21T10:23:29.786Z,6.30
2017-03-21T10:24:30.514Z,11.78
2017-03-21T10:25:30.805Z,6.62
2017-03-21T10:26:31.517Z,8.28
2017-03-21T10:27:32.098Z,20.33
2017-03-21T10:28:32.058Z,9.12
2017-03-21T10:29:32.061Z,7.90
2017-03-21T10:30:32.130Z,8.33
2017-03-21T10:31:32.126Z,5.30
2017-03-21T10:32:32.563Z,7.75
2017-03-21T10:33:32.562Z,7.37
2017-03-21T10:34:32.524Z,6.05
2017-03-21T10:35:32.497Z,7.32
2017-03-21T10:36:32.482Z,6.13
2017-03-21T10:37:32.510Z,7.63
2017-03-21T10:38:32.558Z,9.27
2017-03-21T10:39:32.521Z,6.65
2017-03-21T10:40:32.503Z,7.85
2017-03-21T10:41:32.465Z,11.62
2017-03-21T10:42:32.510Z,10.52
2017-03-21T10:43:32.518Z,14.60
2017-03-21T10:44:32.497Z,16.50
2017-03-21T10:45:44.385Z,6.65
2017-03-21T10:46:45.130Z,18.00
2017-03-21T10:47:45.133Z,10.48
2017-03-21T10:48:45.154Z,9.47
2017-03-21T10:49:45.165Z,11.80
2017-03-21T10:50:45.139Z,12.73
2017-03-21T10:51:45.215Z,10.32
2017-03-21T10:52:45.180Z,8.57
2017-03-21T10:53:45.181Z,8.35
2017-03-21T10:54:45.198Z,10.33
2017-03-21T10:55:45.150Z,9.30
2017-03-21T10:56:45.128Z,8.95
2017-03-21T10:57:45.135Z,11.57
2017-03-21T10:58:45.147Z,9.58
2017-03-21T10:59:45.135Z,9.50
2017-03-21T11:00:45.165Z,7.70
2017-03-21T11:01:45.171Z,14.33
2017-03-21T11:02:45.173Z,9.55
2017-03-21T11:03:45.189Z,8.85
2017-03-21T11:04:45.236Z,21.88
2017-03-21T11:05:45.251Z,12.45
2017-03-21T11:06:45.270Z,20.38
2017-03-21T11:07:45.255Z,23.33
2017-03-21T11:08:45.247Z,12.08
2017-03-21T11:09:45.203Z,13.12
2017-03-21T11:10:45.179Z,12.47
2017-03-21T11:11:45.167Z,12.15
2017-03-21T11:12:45.173Z,14.48
2017-03-21T11:13:46.018Z,14.18
2017-03-21T11:14:46.002Z,6.68
2017-03-21T11:15:46.021Z,8.65
2017-03-21T11:16:46.723Z,7.20
2017-03-21T11:17:46.707Z,7.47
2017-03-21T11:18:46.690Z,8.83
2017-03-21T11:19:46.645Z,7.82
2017-03-21T11:20:46.598Z,9.90
2017-03-21T11:21:46.547Z,7.70
2017-03-21T11:22:46.593Z,7.52
2017-03-21T11:23:46.581Z,11.22
2017-03-21T11:25:18.769Z,8.55
2017-03-21T11:26:34.983Z,11.05
2017-03-21T11:27:51.401Z,11.15
2017-03-21T11:29:17.660Z,11.23
2017-03-21T11:30:22.118Z,8.92
2017-03-21T11:31:22.817Z,9.33
2017-03-21T11:32:22.886Z,12.62
2017-03-21T11:33:24.815Z,11.95
2017-03-21T11:34:24.782Z,7.77
2017-03-21T11:35:24.750Z,8.03
2017-03-21T11:36:24.721Z,7.33
2017-03-21T11:37:24.739Z,7.77
2017-03-21T11:38:24.686Z,6.73
2017-03-21T11:39:24.693Z,6.90
2017-03-21T11:40:24.712Z,6.95
2017-03-21T11:41:24.805Z,7.43
2017-03-21T11:42:24.771Z,7.25
2017-03-21T11:43:24.734Z,6.87
2017-03-21T11:44:24.789Z,6.83
2017-03-21T11:45:24.918Z,8.40
2017-03-21T11:46:24.940Z,8.97
2017-03-21T11:47:24.901Z,9.03
2017-03-21T11:48:24.898Z,9.70
2017-03-21T11:49:24.869Z,10.10
2017-03-21T11:50:24.909Z,7.45
2017-03-21T11:51:24.918Z,10.30
2017-03-21T11:52:24.981Z,7.18
2017-03-21T11:53:24.987Z,10.33
2017-03-21T11:54:25.710Z,8.57
2017-03-21T11:55:25.989Z,7.68
2017-03-21T11:56:26.033Z,7.93
2017-03-21T11:57:26.093Z,12.67
2017-03-21T11:58:26.081Z,16.42
2017-03-21T11:59:26.080Z,9.93
2017-03-21T12:00:26.200Z,10.75
2017-03-21T12:01:26.299Z,13.47
2017-03-21T12:02:26.283Z,10.78
2017-03-21T12:03:26.283Z,9.38
2017-03-21T12:04:27.003Z,13.77
2017-03-21T12:05:26.989Z,16.43
2017-03-21T12:06:26.974Z,10.08
2017-03-21T12:07:26.935Z,13.70
2017-03-21T12:08:26.902Z,36.00
2017-03-21T12:09:26.918Z,36.45
2017-03-21T12:10:27.692Z,14.40
2017-03-21T12:11:27.684Z,8.70
2017-03-21T12:12:27.640Z,6.92
2017-03-21T12:13:27.600Z,10.57
2017-03-21T12:14:27.566Z,13.35
2017-03-21T12:15:28.439Z,9.37
2017-03-21T12:16:28.389Z,7.28
2017-03-21T12:17:28.742Z,9.15
2017-03-21T12:18:28.735Z,10.28
2017-03-21T12:19:28.847Z,16.87
2017-03-21T12:20:28.815Z,8.90
2017-03-21T12:21:28.801Z,9.88
2017-03-21T12:22:28.765Z,9.98
2017-03-21T12:23:28.744Z,10.53
2017-03-21T12:24:28.691Z,7.27
2017-03-21T12:27:08.733Z,12.10
2017-03-21T12:28:08.744Z,19.30
2017-03-21T12:29:08.738Z,9.68
2017-03-21T12:30:09.502Z,8.12
2017-03-21T12:31:09.491Z,6.05
2017-03-21T12:32:09.502Z,10.95
2017-03-21T12:33:09.442Z,5.50
2017-03-21T12:34:09.411Z,6.92
2017-03-21T12:35:09.498Z,12.68
2017-03-21T12:36:09.466Z,12.63
2017-03-21T12:37:09.480Z,3.70
2017-03-21T12:38:09.491Z,3.72
2017-03-21T12:39:09.522Z,4.48
2017-03-21T12:40:09.533Z,10.38
2017-03-21T12:41:10.252Z,15.03
2017-03-21T12:42:10.217Z,5.12
2017-03-21T12:43:10.277Z,6.08
2017-03-21T12:44:10.214Z,3.97
2017-03-21T12:45:10.222Z,2.05
2017-03-21T12:46:10.193Z,3.68
2017-03-21T12:47:11.575Z,16.75
2017-03-21T12:48:12.294Z,5.27
2017-03-21T12:49:12.247Z,5.02
2017-03-21T12:50:12.251Z,7.58
2017-03-21T12:51:12.999Z,7.13
2017-03-21T12:52:12.964Z,7.05
2017-03-21T12:53:12.967Z,5.12
2017-03-21T12:54:13.082Z,3.17
2017-03-21T12:55:13.169Z,7.08
2017-03-21T12:56:13.242Z,4.73
2017-03-21T12:57:13.266Z,6.00
2017-03-21T12:58:13.210Z,12.80
2017-03-21T12:59:13.299Z,4.55
2017-03-21T13:00:13.359Z,8.48
2017-03-21T13:01:14.841Z,4.67
2017-03-21T13:02:14.877Z,7.38
2017-03-21T13:03:14.905Z,5.85
2017-03-21T13:04:14.975Z,9.68
2017-03-21T13:05:15.082Z,8.13
2017-03-21T13:06:15.865Z,16.08
2017-03-21T13:07:15.920Z,4.50
2017-03-21T13:08:15.894Z,4.35
2017-03-21T13:09:15.968Z,4.87